WetterOnline ( https://www.wetteronline.de )

Wetter aktuell Hasselfelde

Aktuelles Wetter: Wernigerode (240m)

6-stündlich | Neueste Meldungen
Ortszeit Temperatur Wetter
Mo, 06.02. 7:00 0.4° C bedeckt
Mo, 06.02. 1:00 0.3° C leicht bewölkt
So, 05.02. 19:00 -0.1° C bedeckt
So, 05.02. 13:00 1.6° C bedeckt
So, 05.02. 7:00 0.7° C bedeckt
So, 05.02. 1:00 -3.3° C leicht bewölkt
Sa, 04.02. 19:00 -1.6° C bedeckt
Sa, 04.02. 13:00 3.8° C leicht bewölkt
Ortszeit Temperatur Wetter
Mo, 06.02. 12:30 0.3° C bedeckt
Mo, 06.02. 12:20 0.3° C bedeckt
Mo, 06.02. 12:10 0.4° C bedeckt
Mo, 06.02. 12:00 0.6° C bedeckt
Mo, 06.02. 11:50 0.6° C bedeckt
Mo, 06.02. 11:40 0.6° C bedeckt
Mo, 06.02. 11:30 0.6° C bedeckt
Mo, 06.02. 11:00 0.5° C bedeckt
Mo, 06.02. 10:30 0.3° C bedeckt
Mo, 06.02. 10:00 0.4° C bewölkt
Mo, 06.02. 9:30 0.6° C bewölkt
Ortszeit Relative Feuchte Sichtweite
Mo, 06.02. 7:00 95% 4.1 km
Mo, 06.02. 1:00 88% 15 km
So, 05.02. 19:00 90% 20 km
So, 05.02. 13:00 80% 40 km
So, 05.02. 7:00 67% >70 km
So, 05.02. 1:00 95% 40 km
Sa, 04.02. 19:00 90% 45 km
Sa, 04.02. 13:00 62% 40 km
Ortszeit Relative Feuchte Sichtweite
Mo, 06.02. 12:30 86% 18 km
Mo, 06.02. 12:20 86% -
Mo, 06.02. 12:10 86% -
Mo, 06.02. 12:00 83% 26 km
Mo, 06.02. 11:50 83% -
Mo, 06.02. 11:40 85% -
Mo, 06.02. 11:30 83% 28 km
Mo, 06.02. 11:00 85% 26 km
Mo, 06.02. 10:30 86% 21 km
Mo, 06.02. 10:00 86% 19 km
Mo, 06.02. 9:30 88% 17 km
Ortszeit Niederschlagsmenge Niederschlagsart
Mo, 06.02. 7:00 0.1 l/m2 in 12 Std. Schnee, Sprühregen
Mo, 06.02. 1:00 0.0 l/m2 in 6 Std. -
So, 05.02. 19:00 0.1 l/m2 in 12 Std. Schnee, Sprühregen
So, 05.02. 13:00 0.0 l/m2 in 6 Std. -
So, 05.02. 7:00 0.0 l/m2 in 12 Std. -
So, 05.02. 1:00 0.0 l/m2 in 6 Std. -
Sa, 04.02. 19:00 0.0 l/m2 in 12 Std. -
Sa, 04.02. 13:00 0.0 l/m2 in 6 Std. -
Ortszeit Niederschlagsmenge Niederschlagsart
Mo, 06.02. 12:30 0.0 l/m2 in 30 Min -
Mo, 06.02. 12:20 keine Meldung -
Mo, 06.02. 12:10 keine Meldung -
Mo, 06.02. 12:00 0.0 l/m2 in 1 Std. -
Mo, 06.02. 11:50 keine Meldung -
Mo, 06.02. 11:40 keine Meldung -
Mo, 06.02. 11:30 0.0 l/m2 in 30 Min -
Mo, 06.02. 11:00 0.0 l/m2 in 1 Std. -
Mo, 06.02. 10:30 0.0 l/m2 in 30 Min -
Mo, 06.02. 10:00 0.0 l/m2 in 1 Std. -
Mo, 06.02. 9:30 0.0 l/m2 in 30 Min -
Ortszeit Stärke Spitze Richtung
km/h Bft. km/h Grad Sektor
Mo, 06.02. 7:00 18 3 29 310° NW
Mo, 06.02. 1:00 11 2 18 320° NW
So, 05.02. 19:00 4 1 11 320° NW
So, 05.02. 13:00 6 1 28 10° N
So, 05.02. 7:00 14 3 43 190° S
So, 05.02. 1:00 7 2 11 170° S
Sa, 04.02. 19:00 4 1 14 190° S
Sa, 04.02. 13:00 6 1 13 140° SO
Ortszeit Stärke Spitze Richtung
km/h Bft. km/h Grad Sektor
Mo, 06.02. 12:30 13 3 22 340° N
Mo, 06.02. 12:20 13 3 - 340° N
Mo, 06.02. 12:10 13 3 - 340° N
Mo, 06.02. 12:00 15 3 24 360° N
Mo, 06.02. 11:50 15 3 - 360° N
Mo, 06.02. 11:40 13 3 - 360° N
Mo, 06.02. 11:30 13 3 22 330° NW
Mo, 06.02. 11:00 9 2 26 320° NW
Mo, 06.02. 10:30 13 3 26 340° N
Mo, 06.02. 10:00 17 3 26 330° NW
Mo, 06.02. 9:30 14 3 22 330° NW
Ortszeit Untergrenze Bedeckung Gattung
total tief tief mittel hoch
Mo, 06.02. 7:00 90 m 8/8 8/8 - - -
Mo, 06.02. 1:00 540 m 4/8 3/8 - - -
So, 05.02. 19:00 240 m 8/8 8/8 - - -
So, 05.02. 13:00 1470 m 8/8 8/8 - - -
So, 05.02. 7:00 2700 m 8/8 8/8 - - -
So, 05.02. 1:00 750 m 3/8 3/8 - - -
Sa, 04.02. 19:00 4500 m 8/8 8/8 - - -
Sa, 04.02. 13:00 660 m 4/8 4/8 - - -
Ortszeit Bedeckungsgrad in Achtel und Wolkenuntergrenze
Mo, 06.02. 12:30 7(240m) 8(390m)
Mo, 06.02. 12:20 7(240m) 8(390m)
Mo, 06.02. 12:10 8
Mo, 06.02. 12:00 7(330m) 8(480m)
Mo, 06.02. 11:50 7(330m) 8(480m)
Mo, 06.02. 11:40 8
Mo, 06.02. 11:30 8(360m)
Mo, 06.02. 11:00 8(360m)
Mo, 06.02. 10:30 4(240m) 8(390m)
Mo, 06.02. 10:00 7(300m)
Mo, 06.02. 9:30 4(270m) 7(420m)
Ortszeit Luftdruck NN (hPa) Tendenz (hPa in 3 Std.)
Mo, 06.02. 7:00 1040 - 0,3
Mo, 06.02. 1:00 1040 + 0,5
So, 05.02. 19:00 1039 + 2,4
So, 05.02. 13:00 1035 + 0,2
So, 05.02. 7:00 1036 - 0,7
So, 05.02. 1:00 1040 - 0,3
Sa, 04.02. 19:00 1040 + 0,8
Sa, 04.02. 13:00 1038 + 1,2
Ortszeit Luftdruck NN (hPa) Tendenz (hPa in 3 Std.)
Mo, 06.02. 12:30 1040 - 0,6
Mo, 06.02. 12:20 1040 keine Meldung
Mo, 06.02. 12:10 1040 keine Meldung
Mo, 06.02. 12:00 1040 - 0,1
Mo, 06.02. 11:50 1040 keine Meldung
Mo, 06.02. 11:40 1040 keine Meldung
Mo, 06.02. 11:30 1040 - 0,2
Mo, 06.02. 11:00 1041 + 0,2
Mo, 06.02. 10:30 1041 + 0,5
Mo, 06.02. 10:00 1041 + 0,5
Mo, 06.02. 9:30 1041 + 0,7
Ortszeit Schneehöhe (cm)
Mo, 06.02. 7:00 0
Mo, 06.02. 1:00 0
So, 05.02. 19:00 0
So, 05.02. 13:00 0
So, 05.02. 7:00 0
So, 05.02. 1:00 0
Sa, 04.02. 19:00 0
Sa, 04.02. 13:00 0
Ortszeit Schneehöhe (cm)
Mo, 06.02. 12:30 0
Mo, 06.02. 12:20 0
Mo, 06.02. 12:10 0
Mo, 06.02. 12:00 0
Mo, 06.02. 11:50 0
Mo, 06.02. 11:40 0
Mo, 06.02. 11:30 0
Mo, 06.02. 11:00 0
Mo, 06.02. 10:30 0
Mo, 06.02. 10:00 0
Mo, 06.02. 9:30 0
Link zu dieser Seite / Seite empfehlen

Das Wetter in ...